sensor_id;sensor_type;location;lat;lon;timestamp;P1;durP1;ratioP1;P2;durP2;ratioP2
29280;SDS011;25048;49.590;11.026;2023-07-20T00:00:51;7.15;;;3.00;;
29280;SDS011;25048;49.590;11.026;2023-07-20T00:03:19;8.35;;;3.67;;
29280;SDS011;25048;49.590;11.026;2023-07-20T00:05:49;5.47;;;3.12;;
29280;SDS011;25048;49.590;11.026;2023-07-20T00:08:17;6.70;;;2.72;;
29280;SDS011;25048;49.590;11.026;2023-07-20T00:10:45;8.18;;;3.37;;
29280;SDS011;25048;49.590;11.026;2023-07-20T00:13:12;8.83;;;3.87;;
29280;SDS011;25048;49.590;11.026;2023-07-20T00:15:41;5.55;;;3.12;;
29280;SDS011;25048;49.590;11.026;2023-07-20T00:18:09;9.13;;;3.37;;
29280;SDS011;25048;49.590;11.026;2023-07-20T00:20:36;7.12;;;3.27;;
29280;SDS011;25048;49.590;11.026;2023-07-20T00:23:04;8.33;;;3.87;;
29280;SDS011;25048;49.590;11.026;2023-07-20T00:25:32;5.87;;;3.12;;
29280;SDS011;25048;49.590;11.026;2023-07-20T00:27:59;5.12;;;3.47;;
29280;SDS011;25048;49.590;11.026;2023-07-20T00:30:28;3.83;;;2.95;;
29280;SDS011;25048;49.590;11.026;2023-07-20T00:32:55;5.30;;;3.40;;
29280;SDS011;25048;49.590;11.026;2023-07-20T00:35:23;3.95;;;3.08;;
29280;SDS011;25048;49.590;11.026;2023-07-20T00:37:50;7.47;;;3.25;;
29280;SDS011;25048;49.590;11.026;2023-07-20T00:40:18;7.65;;;3.72;;
29280;SDS011;25048;49.590;11.026;2023-07-20T00:42:46;4.80;;;3.45;;
29280;SDS011;25048;49.590;11.026;2023-07-20T00:45:13;6.10;;;3.80;;
29280;SDS011;25048;49.590;11.026;2023-07-20T00:47:41;7.37;;;3.67;;
29280;SDS011;25048;49.590;11.026;2023-07-20T00:50:09;11.40;;;3.35;;
29280;SDS011;25048;49.590;11.026;2023-07-20T00:52:37;6.22;;;3.67;;
29280;SDS011;25048;49.590;11.026;2023-07-20T00:55:06;6.03;;;4.60;;
29280;SDS011;25048;49.590;11.026;2023-07-20T00:57:35;7.33;;;4.05;;
29280;SDS011;25048;49.590;11.026;2023-07-20T01:00:03;7.55;;;4.90;;
29280;SDS011;25048;49.590;11.026;2023-07-20T01:02:32;5.87;;;4.35;;
29280;SDS011;25048;49.590;11.026;2023-07-20T01:05:00;5.25;;;4.40;;
29280;SDS011;25048;49.590;11.026;2023-07-20T01:07:31;6.45;;;4.30;;
29280;SDS011;25048;49.590;11.026;2023-07-20T01:12:39;7.60;;;4.28;;
29280;SDS011;25048;49.590;11.026;2023-07-20T01:15:09;7.03;;;4.20;;
29280;SDS011;25048;49.590;11.026;2023-07-20T01:17:38;6.62;;;4.20;;
29280;SDS011;25048;49.590;11.026;2023-07-20T01:20:10;8.33;;;4.40;;
29280;SDS011;25048;49.590;11.026;2023-07-20T01:33:35;12.98;;;4.47;;
29280;SDS011;25048;49.590;11.026;2023-07-20T01:36:04;5.72;;;4.35;;
29280;SDS011;25048;49.590;11.026;2023-07-20T01:38:33;4.95;;;4.28;;
29280;SDS011;25048;49.590;11.026;2023-07-20T01:41:02;6.12;;;3.92;;
29280;SDS011;25048;49.590;11.026;2023-07-20T01:43:30;8.13;;;4.30;;
29280;SDS011;25048;49.590;11.026;2023-07-20T01:45:58;9.58;;;4.25;;
29280;SDS011;25048;49.590;11.026;2023-07-20T01:48:26;7.72;;;4.25;;
29280;SDS011;25048;49.590;11.026;2023-07-20T01:50:53;8.98;;;4.17;;
29280;SDS011;25048;49.590;11.026;2023-07-20T01:53:21;10.50;;;4.08;;
29280;SDS011;25048;49.590;11.026;2023-07-20T01:55:49;6.72;;;3.90;;
29280;SDS011;25048;49.590;11.026;2023-07-20T01:58:18;10.70;;;4.23;;
29280;SDS011;25048;49.590;11.026;2023-07-20T02:00:45;5.90;;;4.00;;
29280;SDS011;25048;49.590;11.026;2023-07-20T02:03:13;7.33;;;4.35;;
29280;SDS011;25048;49.590;11.026;2023-07-20T02:05:43;5.42;;;4.08;;
29280;SDS011;25048;49.590;11.026;2023-07-20T02:08:11;7.28;;;4.62;;
29280;SDS011;25048;49.590;11.026;2023-07-20T02:10:39;9.20;;;4.47;;
29280;SDS011;25048;49.590;11.026;2023-07-20T02:13:06;7.87;;;4.60;;
29280;SDS011;25048;49.590;11.026;2023-07-20T02:15:34;13.25;;;5.05;;
29280;SDS011;25048;49.590;11.026;2023-07-20T02:18:01;8.05;;;4.60;;
29280;SDS011;25048;49.590;11.026;2023-07-20T02:20:29;10.65;;;4.78;;
29280;SDS011;25048;49.590;11.026;2023-07-20T02:22:56;6.97;;;4.60;;
29280;SDS011;25048;49.590;11.026;2023-07-20T02:25:24;5.78;;;4.45;;
29280;SDS011;25048;49.590;11.026;2023-07-20T02:27:51;7.70;;;4.85;;
29280;SDS011;25048;49.590;11.026;2023-07-20T02:30:19;7.97;;;5.10;;
29280;SDS011;25048;49.590;11.026;2023-07-20T02:32:46;7.35;;;4.78;;
29280;SDS011;25048;49.590;11.026;2023-07-20T02:35:14;9.33;;;4.45;;
29280;SDS011;25048;49.590;11.026;2023-07-20T02:37:42;9.73;;;4.47;;
29280;SDS011;25048;49.590;11.026;2023-07-20T02:40:10;8.13;;;4.20;;
29280;SDS011;25048;49.590;11.026;2023-07-20T02:42:38;6.53;;;4.00;;
29280;SDS011;25048;49.590;11.026;2023-07-20T02:45:05;7.42;;;4.40;;
29280;SDS011;25048;49.590;11.026;2023-07-20T02:47:33;9.63;;;4.78;;
29280;SDS011;25048;49.590;11.026;2023-07-20T02:50:01;8.45;;;4.40;;
29280;SDS011;25048;49.590;11.026;2023-07-20T02:52:29;6.72;;;3.95;;
29280;SDS011;25048;49.590;11.026;2023-07-20T02:54:56;6.70;;;4.28;;
29280;SDS011;25048;49.590;11.026;2023-07-20T02:57:24;7.12;;;3.95;;
29280;SDS011;25048;49.590;11.026;2023-07-20T02:59:52;8.75;;;4.50;;
29280;SDS011;25048;49.590;11.026;2023-07-20T03:02:21;10.70;;;5.00;;
29280;SDS011;25048;49.590;11.026;2023-07-20T03:04:48;13.93;;;4.70;;
29280;SDS011;25048;49.590;11.026;2023-07-20T03:07:16;7.45;;;4.37;;
29280;SDS011;25048;49.590;11.026;2023-07-20T03:09:43;4.85;;;4.03;;
29280;SDS011;25048;49.590;11.026;2023-07-20T03:12:11;7.55;;;4.92;;
29280;SDS011;25048;49.590;11.026;2023-07-20T03:14:38;5.87;;;4.22;;
29280;SDS011;25048;49.590;11.026;2023-07-20T03:17:06;7.15;;;4.30;;
29280;SDS011;25048;49.590;11.026;2023-07-20T03:19:34;5.80;;;4.37;;
29280;SDS011;25048;49.590;11.026;2023-07-20T03:22:01;7.17;;;4.55;;
29280;SDS011;25048;49.590;11.026;2023-07-20T03:24:29;5.65;;;3.95;;
29280;SDS011;25048;49.590;11.026;2023-07-20T03:26:57;10.55;;;5.30;;
29280;SDS011;25048;49.590;11.026;2023-07-20T03:29:24;13.53;;;4.85;;
29280;SDS011;25048;49.590;11.026;2023-07-20T03:31:52;12.45;;;4.87;;
29280;SDS011;25048;49.590;11.026;2023-07-20T03:34:19;7.65;;;5.12;;
29280;SDS011;25048;49.590;11.026;2023-07-20T03:36:47;7.55;;;4.20;;
29280;SDS011;25048;49.590;11.026;2023-07-20T03:39:14;8.88;;;4.95;;
29280;SDS011;25048;49.590;11.026;2023-07-20T03:41:42;9.60;;;4.97;;
29280;SDS011;25048;49.590;11.026;2023-07-20T03:44:09;10.30;;;5.15;;
29280;SDS011;25048;49.590;11.026;2023-07-20T03:46:36;5.62;;;4.70;;
29280;SDS011;25048;49.590;11.026;2023-07-20T03:49:04;10.55;;;4.95;;
29280;SDS011;25048;49.590;11.026;2023-07-20T03:51:32;10.08;;;4.55;;
29280;SDS011;25048;49.590;11.026;2023-07-20T03:53:59;11.22;;;4.47;;
29280;SDS011;25048;49.590;11.026;2023-07-20T03:56:27;9.75;;;5.22;;
29280;SDS011;25048;49.590;11.026;2023-07-20T03:58:54;9.50;;;4.42;;
29280;SDS011;25048;49.590;11.026;2023-07-20T04:01:22;8.90;;;4.78;;
29280;SDS011;25048;49.590;11.026;2023-07-20T04:03:49;7.60;;;4.62;;
29280;SDS011;25048;49.590;11.026;2023-07-20T04:06:17;10.72;;;4.83;;
29280;SDS011;25048;49.590;11.026;2023-07-20T04:08:44;10.45;;;5.65;;
29280;SDS011;25048;49.590;11.026;2023-07-20T04:11:13;8.95;;;4.65;;
29280;SDS011;25048;49.590;11.026;2023-07-20T04:13:41;10.48;;;5.45;;
29280;SDS011;25048;49.590;11.026;2023-07-20T04:16:08;11.00;;;5.17;;
29280;SDS011;25048;49.590;11.026;2023-07-20T04:18:36;12.60;;;5.37;;
29280;SDS011;25048;49.590;11.026;2023-07-20T04:21:03;7.17;;;4.45;;
29280;SDS011;25048;49.590;11.026;2023-07-20T04:23:31;6.60;;;4.17;;
29280;SDS011;25048;49.590;11.026;2023-07-20T04:25:58;7.55;;;5.08;;
29280;SDS011;25048;49.590;11.026;2023-07-20T04:28:26;7.15;;;5.00;;
29280;SDS011;25048;49.590;11.026;2023-07-20T04:30:53;10.23;;;4.28;;
29280;SDS011;25048;49.590;11.026;2023-07-20T04:33:21;9.38;;;4.33;;
29280;SDS011;25048;49.590;11.026;2023-07-20T04:35:52;10.18;;;4.72;;
29280;SDS011;25048;49.590;11.026;2023-07-20T04:38:20;8.98;;;4.35;;
29280;SDS011;25048;49.590;11.026;2023-07-20T04:40:48;8.45;;;4.67;;
29280;SDS011;25048;49.590;11.026;2023-07-20T04:43:17;7.67;;;4.20;;
29280;SDS011;25048;49.590;11.026;2023-07-20T04:45:45;7.10;;;4.42;;
29280;SDS011;25048;49.590;11.026;2023-07-20T04:48:13;7.87;;;4.55;;
29280;SDS011;25048;49.590;11.026;2023-07-20T04:50:42;9.40;;;4.90;;
29280;SDS011;25048;49.590;11.026;2023-07-20T04:53:11;7.40;;;5.00;;
29280;SDS011;25048;49.590;11.026;2023-07-20T04:55:39;7.60;;;4.28;;
29280;SDS011;25048;49.590;11.026;2023-07-20T04:58:07;7.35;;;4.30;;
29280;SDS011;25048;49.590;11.026;2023-07-20T05:00:35;8.90;;;4.33;;
29280;SDS011;25048;49.590;11.026;2023-07-20T05:03:04;15.18;;;4.15;;
29280;SDS011;25048;49.590;11.026;2023-07-20T05:05:32;9.95;;;4.20;;
29280;SDS011;25048;49.590;11.026;2023-07-20T05:07:59;11.93;;;3.95;;
29280;SDS011;25048;49.590;11.026;2023-07-20T05:10:27;4.62;;;3.55;;
29280;SDS011;25048;49.590;11.026;2023-07-20T05:12:54;6.35;;;3.90;;
29280;SDS011;25048;49.590;11.026;2023-07-20T05:15:22;16.23;;;4.65;;
29280;SDS011;25048;49.590;11.026;2023-07-20T05:17:49;6.35;;;4.20;;
29280;SDS011;25048;49.590;11.026;2023-07-20T05:20:18;10.68;;;4.22;;
29280;SDS011;25048;49.590;11.026;2023-07-20T05:22:46;4.78;;;3.58;;
29280;SDS011;25048;49.590;11.026;2023-07-20T05:25:14;7.30;;;3.98;;
29280;SDS011;25048;49.590;11.026;2023-07-20T05:27:43;8.15;;;3.80;;
29280;SDS011;25048;49.590;11.026;2023-07-20T05:30:12;6.37;;;3.67;;
29280;SDS011;25048;49.590;11.026;2023-07-20T05:32:39;11.18;;;3.30;;
29280;SDS011;25048;49.590;11.026;2023-07-20T05:35:07;5.22;;;3.42;;
29280;SDS011;25048;49.590;11.026;2023-07-20T05:37:36;5.58;;;3.17;;
29280;SDS011;25048;49.590;11.026;2023-07-20T05:40:05;8.53;;;3.15;;
29280;SDS011;25048;49.590;11.026;2023-07-20T05:42:33;5.87;;;4.30;;
29280;SDS011;25048;49.590;11.026;2023-07-20T05:45:01;5.40;;;3.98;;
29280;SDS011;25048;49.590;11.026;2023-07-20T05:47:28;4.12;;;3.52;;
29280;SDS011;25048;49.590;11.026;2023-07-20T05:49:56;5.25;;;3.22;;
29280;SDS011;25048;49.590;11.026;2023-07-20T05:52:23;4.72;;;3.45;;
29280;SDS011;25048;49.590;11.026;2023-07-20T05:54:51;7.65;;;3.17;;
29280;SDS011;25048;49.590;11.026;2023-07-20T05:57:18;5.17;;;3.37;;
29280;SDS011;25048;49.590;11.026;2023-07-20T05:59:46;5.67;;;3.52;;
29280;SDS011;25048;49.590;11.026;2023-07-20T06:02:13;4.25;;;3.50;;
29280;SDS011;25048;49.590;11.026;2023-07-20T06:04:41;12.30;;;3.22;;
29280;SDS011;25048;49.590;11.026;2023-07-20T06:07:08;7.05;;;3.25;;
29280;SDS011;25048;49.590;11.026;2023-07-20T06:09:36;6.47;;;3.10;;
29280;SDS011;25048;49.590;11.026;2023-07-20T06:12:04;12.23;;;4.28;;
29280;SDS011;25048;49.590;11.026;2023-07-20T06:14:31;7.15;;;2.95;;
29280;SDS011;25048;49.590;11.026;2023-07-20T06:16:59;5.67;;;2.85;;
29280;SDS011;25048;49.590;11.026;2023-07-20T06:19:26;8.60;;;2.80;;
29280;SDS011;25048;49.590;11.026;2023-07-20T06:21:54;5.60;;;2.50;;
29280;SDS011;25048;49.590;11.026;2023-07-20T06:24:21;6.75;;;2.52;;
29280;SDS011;25048;49.590;11.026;2023-07-20T06:26:49;5.28;;;2.52;;
29280;SDS011;25048;49.590;11.026;2023-07-20T06:29:16;6.62;;;2.83;;
29280;SDS011;25048;49.590;11.026;2023-07-20T06:31:45;7.03;;;2.35;;
29280;SDS011;25048;49.590;11.026;2023-07-20T06:34:12;7.45;;;2.52;;
29280;SDS011;25048;49.590;11.026;2023-07-20T06:36:40;5.45;;;3.10;;
29280;SDS011;25048;49.590;11.026;2023-07-20T06:39:07;8.40;;;2.55;;
29280;SDS011;25048;49.590;11.026;2023-07-20T06:41:34;7.22;;;2.92;;
29280;SDS011;25048;49.590;11.026;2023-07-20T06:44:02;4.20;;;2.70;;
29280;SDS011;25048;49.590;11.026;2023-07-20T06:46:30;4.67;;;2.83;;
29280;SDS011;25048;49.590;11.026;2023-07-20T06:48:58;5.28;;;2.65;;
29280;SDS011;25048;49.590;11.026;2023-07-20T06:51:26;6.80;;;3.27;;
29280;SDS011;25048;49.590;11.026;2023-07-20T06:53:53;9.03;;;4.70;;
29280;SDS011;25048;49.590;11.026;2023-07-20T06:56:21;4.72;;;2.52;;
29280;SDS011;25048;49.590;11.026;2023-07-20T06:58:48;5.08;;;2.77;;
29280;SDS011;25048;49.590;11.026;2023-07-20T07:01:16;8.00;;;2.60;;
29280;SDS011;25048;49.590;11.026;2023-07-20T07:03:43;5.80;;;2.50;;
29280;SDS011;25048;49.590;11.026;2023-07-20T07:06:11;4.03;;;2.37;;
29280;SDS011;25048;49.590;11.026;2023-07-20T07:08:38;4.65;;;2.55;;
29280;SDS011;25048;49.590;11.026;2023-07-20T07:11:05;2.85;;;2.40;;
29280;SDS011;25048;49.590;11.026;2023-07-20T07:13:33;6.67;;;2.72;;
29280;SDS011;25048;49.590;11.026;2023-07-20T07:16:00;6.47;;;2.67;;
29280;SDS011;25048;49.590;11.026;2023-07-20T07:18:28;3.33;;;2.35;;
29280;SDS011;25048;49.590;11.026;2023-07-20T07:20:55;7.65;;;2.08;;
29280;SDS011;25048;49.590;11.026;2023-07-20T07:23:23;3.60;;;2.12;;
29280;SDS011;25048;49.590;11.026;2023-07-20T07:25:50;4.70;;;2.10;;
29280;SDS011;25048;49.590;11.026;2023-07-20T07:28:18;2.95;;;2.25;;
29280;SDS011;25048;49.590;11.026;2023-07-20T07:30:45;4.60;;;2.33;;
29280;SDS011;25048;49.590;11.026;2023-07-20T07:33:13;3.70;;;1.90;;
29280;SDS011;25048;49.590;11.026;2023-07-20T07:35:40;9.70;;;2.20;;
29280;SDS011;25048;49.590;11.026;2023-07-20T07:38:08;3.67;;;2.47;;
29280;SDS011;25048;49.590;11.026;2023-07-20T07:40:36;5.50;;;2.12;;
29280;SDS011;25048;49.590;11.026;2023-07-20T07:43:04;2.75;;;2.00;;
29280;SDS011;25048;49.590;11.026;2023-07-20T07:45:34;9.53;;;4.55;;
29280;SDS011;25048;49.590;11.026;2023-07-20T07:48:03;4.67;;;2.10;;
29280;SDS011;25048;49.590;11.026;2023-07-20T07:50:31;2.95;;;1.92;;
29280;SDS011;25048;49.590;11.026;2023-07-20T07:52:59;4.58;;;2.10;;
29280;SDS011;25048;49.590;11.026;2023-07-20T07:55:27;4.80;;;2.12;;
29280;SDS011;25048;49.590;11.026;2023-07-20T07:57:54;5.90;;;2.45;;
29280;SDS011;25048;49.590;11.026;2023-07-20T08:00:22;4.28;;;2.27;;
29280;SDS011;25048;49.590;11.026;2023-07-20T08:02:50;10.18;;;2.33;;
29280;SDS011;25048;49.590;11.026;2023-07-20T08:05:17;4.85;;;2.30;;
29280;SDS011;25048;49.590;11.026;2023-07-20T08:07:45;2.70;;;1.95;;
29280;SDS011;25048;49.590;11.026;2023-07-20T08:10:12;3.62;;;2.30;;
29280;SDS011;25048;49.590;11.026;2023-07-20T08:12:40;4.72;;;2.50;;
29280;SDS011;25048;49.590;11.026;2023-07-20T08:15:07;8.10;;;2.47;;
29280;SDS011;25048;49.590;11.026;2023-07-20T08:17:36;3.33;;;2.20;;
29280;SDS011;25048;49.590;11.026;2023-07-20T08:20:04;2.22;;;1.82;;
29280;SDS011;25048;49.590;11.026;2023-07-20T08:22:32;3.47;;;1.85;;
29280;SDS011;25048;49.590;11.026;2023-07-20T08:25:00;3.17;;;1.95;;
29280;SDS011;25048;49.590;11.026;2023-07-20T08:27:27;3.42;;;1.70;;
29280;SDS011;25048;49.590;11.026;2023-07-20T08:29:55;4.20;;;2.35;;
29280;SDS011;25048;49.590;11.026;2023-07-20T08:32:23;5.75;;;2.12;;
29280;SDS011;25048;49.590;11.026;2023-07-20T08:34:50;2.83;;;1.90;;
29280;SDS011;25048;49.590;11.026;2023-07-20T08:37:18;7.25;;;2.50;;
29280;SDS011;25048;49.590;11.026;2023-07-20T08:39:45;5.83;;;2.20;;
29280;SDS011;25048;49.590;11.026;2023-07-20T08:42:13;3.77;;;2.00;;
29280;SDS011;25048;49.590;11.026;2023-07-20T08:44:42;3.05;;;2.27;;
29280;SDS011;25048;49.590;11.026;2023-07-20T08:47:12;3.60;;;2.10;;
29280;SDS011;25048;49.590;11.026;2023-07-20T08:49:42;4.92;;;2.33;;
29280;SDS011;25048;49.590;11.026;2023-07-20T08:52:10;6.70;;;2.00;;
29280;SDS011;25048;49.590;11.026;2023-07-20T08:54:39;3.95;;;1.95;;
29280;SDS011;25048;49.590;11.026;2023-07-20T08:57:06;3.77;;;2.08;;
29280;SDS011;25048;49.590;11.026;2023-07-20T08:59:34;5.95;;;2.65;;
29280;SDS011;25048;49.590;11.026;2023-07-20T09:02:04;4.15;;;2.10;;
29280;SDS011;25048;49.590;11.026;2023-07-20T09:04:34;4.30;;;2.00;;
29280;SDS011;25048;49.590;11.026;2023-07-20T09:07:02;2.83;;;2.08;;
29280;SDS011;25048;49.590;11.026;2023-07-20T09:09:30;6.60;;;2.08;;
29280;SDS011;25048;49.590;11.026;2023-07-20T09:11:57;2.80;;;1.98;;
29280;SDS011;25048;49.590;11.026;2023-07-20T09:14:25;3.60;;;1.65;;
29280;SDS011;25048;49.590;11.026;2023-07-20T09:16:53;4.67;;;2.35;;
29280;SDS011;25048;49.590;11.026;2023-07-20T09:19:21;4.70;;;1.80;;
29280;SDS011;25048;49.590;11.026;2023-07-20T09:21:49;3.37;;;1.75;;
29280;SDS011;25048;49.590;11.026;2023-07-20T09:24:19;4.95;;;1.80;;
29280;SDS011;25048;49.590;11.026;2023-07-20T09:26:47;2.08;;;1.80;;
29280;SDS011;25048;49.590;11.026;2023-07-20T09:29:19;3.40;;;1.80;;
29280;SDS011;25048;49.590;11.026;2023-07-20T09:32:00;5.28;;;1.92;;
29280;SDS011;25048;49.590;11.026;2023-07-20T09:34:29;3.85;;;1.98;;
29280;SDS011;25048;49.590;11.026;2023-07-20T09:36:58;2.77;;;1.92;;
29280;SDS011;25048;49.590;11.026;2023-07-20T09:39:26;2.65;;;1.82;;
29280;SDS011;25048;49.590;11.026;2023-07-20T09:41:55;4.33;;;2.15;;
29280;SDS011;25048;49.590;11.026;2023-07-20T09:44:28;4.90;;;2.22;;
29280;SDS011;25048;49.590;11.026;2023-07-20T09:46:55;2.70;;;1.90;;
29280;SDS011;25048;49.590;11.026;2023-07-20T09:49:23;3.72;;;1.65;;
29280;SDS011;25048;49.590;11.026;2023-07-20T09:51:50;3.08;;;1.60;;
29280;SDS011;25048;49.590;11.026;2023-07-20T09:54:21;4.80;;;1.60;;
29280;SDS011;25048;49.590;11.026;2023-07-20T09:56:49;3.22;;;1.82;;
29280;SDS011;25048;49.590;11.026;2023-07-20T09:59:18;1.27;;;1.17;;
29280;SDS011;25048;49.590;11.026;2023-07-20T10:01:46;3.00;;;1.15;;
29280;SDS011;25048;49.590;11.026;2023-07-20T10:04:14;2.17;;;1.10;;
29280;SDS011;25048;49.590;11.026;2023-07-20T10:06:44;3.67;;;1.85;;
29280;SDS011;25048;49.590;11.026;2023-07-20T10:09:14;4.87;;;1.67;;
29280;SDS011;25048;49.590;11.026;2023-07-20T10:11:43;4.03;;;1.60;;
29280;SDS011;25048;49.590;11.026;2023-07-20T10:14:12;2.10;;;1.42;;
29280;SDS011;25048;49.590;11.026;2023-07-20T10:16:45;3.80;;;1.70;;
29280;SDS011;25048;49.590;11.026;2023-07-20T10:19:22;1.90;;;1.45;;
29280;SDS011;25048;49.590;11.026;2023-07-20T10:21:56;2.02;;;1.90;;
29280;SDS011;25048;49.590;11.026;2023-07-20T10:24:25;4.05;;;1.67;;
29280;SDS011;25048;49.590;11.026;2023-07-20T10:26:55;3.37;;;1.62;;
29280;SDS011;25048;49.590;11.026;2023-07-20T10:29:25;3.92;;;1.35;;
29280;SDS011;25048;49.590;11.026;2023-07-20T10:31:54;2.77;;;2.00;;
29280;SDS011;25048;49.590;11.026;2023-07-20T10:34:22;2.47;;;1.62;;
29280;SDS011;25048;49.590;11.026;2023-07-20T10:36:50;3.33;;;1.52;;
29280;SDS011;25048;49.590;11.026;2023-07-20T10:39:27;4.35;;;1.30;;
29280;SDS011;25048;49.590;11.026;2023-07-20T10:42:09;3.42;;;1.30;;
29280;SDS011;25048;49.590;11.026;2023-07-20T10:44:37;2.50;;;1.62;;
29280;SDS011;25048;49.590;11.026;2023-07-20T10:47:09;2.27;;;1.32;;
29280;SDS011;25048;49.590;11.026;2023-07-20T10:52:36;3.85;;;1.32;;
29280;SDS011;25048;49.590;11.026;2023-07-20T10:55:15;2.62;;;1.40;;
29280;SDS011;25048;49.590;11.026;2023-07-20T10:57:43;2.98;;;1.40;;
29280;SDS011;25048;49.590;11.026;2023-07-20T11:00:14;1.30;;;1.20;;
29280;SDS011;25048;49.590;11.026;2023-07-20T11:02:47;2.27;;;1.47;;
29280;SDS011;25048;49.590;11.026;2023-07-20T11:08:03;2.30;;;1.50;;
29280;SDS011;25048;49.590;11.026;2023-07-20T11:10:32;2.55;;;1.32;;
29280;SDS011;25048;49.590;11.026;2023-07-20T11:13:16;13.10;;;1.50;;
29280;SDS011;25048;49.590;11.026;2023-07-20T11:16:01;7.20;;;1.77;;
29280;SDS011;25048;49.590;11.026;2023-07-20T11:18:25;4.28;;;1.47;;
29280;SDS011;25048;49.590;11.026;2023-07-20T11:20:53;3.00;;;1.35;;
29280;SDS011;25048;49.590;11.026;2023-07-20T11:23:21;1.30;;;1.20;;
29280;SDS011;25048;49.590;11.026;2023-07-20T11:25:49;2.45;;;1.50;;
29280;SDS011;25048;49.590;11.026;2023-07-20T11:28:17;2.17;;;1.70;;
29280;SDS011;25048;49.590;11.026;2023-07-20T11:30:44;1.65;;;1.52;;
29280;SDS011;25048;49.590;11.026;2023-07-20T11:33:13;3.35;;;1.60;;
29280;SDS011;25048;49.590;11.026;2023-07-20T11:35:44;2.05;;;1.57;;
29280;SDS011;25048;49.590;11.026;2023-07-20T11:38:13;8.45;;;1.55;;
29280;SDS011;25048;49.590;11.026;2023-07-20T11:40:44;1.82;;;1.67;;
29280;SDS011;25048;49.590;11.026;2023-07-20T11:43:12;3.45;;;1.50;;
29280;SDS011;25048;49.590;11.026;2023-07-20T11:45:40;2.22;;;1.67;;
29280;SDS011;25048;49.590;11.026;2023-07-20T11:48:16;1.80;;;1.60;;
29280;SDS011;25048;49.590;11.026;2023-07-20T11:50:44;2.98;;;1.60;;
29280;SDS011;25048;49.590;11.026;2023-07-20T11:53:12;5.03;;;1.45;;
29280;SDS011;25048;49.590;11.026;2023-07-20T11:55:41;1.98;;;1.62;;
29280;SDS011;25048;49.590;11.026;2023-07-20T11:58:09;2.02;;;1.50;;
29280;SDS011;25048;49.590;11.026;2023-07-20T12:00:38;1.92;;;1.72;;
29280;SDS011;25048;49.590;11.026;2023-07-20T12:03:06;2.75;;;1.57;;
29280;SDS011;25048;49.590;11.026;2023-07-20T12:05:34;8.10;;;1.72;;
29280;SDS011;25048;49.590;11.026;2023-07-20T12:08:01;3.20;;;1.40;;
29280;SDS011;25048;49.590;11.026;2023-07-20T12:10:30;1.87;;;1.50;;
29280;SDS011;25048;49.590;11.026;2023-07-20T12:13:01;3.33;;;1.40;;
29280;SDS011;25048;49.590;11.026;2023-07-20T12:15:33;3.12;;;1.50;;
29280;SDS011;25048;49.590;11.026;2023-07-20T12:18:01;2.40;;;1.45;;
29280;SDS011;25048;49.590;11.026;2023-07-20T12:20:33;1.82;;;1.50;;
29280;SDS011;25048;49.590;11.026;2023-07-20T12:23:03;4.58;;;1.40;;
29280;SDS011;25048;49.590;11.026;2023-07-20T12:25:38;1.77;;;1.42;;
29280;SDS011;25048;49.590;11.026;2023-07-20T12:28:13;1.47;;;1.30;;
29280;SDS011;25048;49.590;11.026;2023-07-20T12:30:38;1.45;;;1.35;;
29280;SDS011;25048;49.590;11.026;2023-07-20T12:33:06;2.08;;;1.35;;
29280;SDS011;25048;49.590;11.026;2023-07-20T12:35:34;1.60;;;1.50;;
29280;SDS011;25048;49.590;11.026;2023-07-20T12:38:02;4.90;;;1.70;;
29280;SDS011;25048;49.590;11.026;2023-07-20T12:40:29;2.52;;;1.50;;
29280;SDS011;25048;49.590;11.026;2023-07-20T12:42:57;2.22;;;1.75;;
29280;SDS011;25048;49.590;11.026;2023-07-20T12:45:25;1.57;;;1.27;;
29280;SDS011;25048;49.590;11.026;2023-07-20T12:47:52;3.70;;;1.37;;
29280;SDS011;25048;49.590;11.026;2023-07-20T12:50:20;3.45;;;1.52;;
29280;SDS011;25048;49.590;11.026;2023-07-20T12:52:48;3.05;;;2.05;;
29280;SDS011;25048;49.590;11.026;2023-07-20T12:55:15;2.20;;;1.35;;
29280;SDS011;25048;49.590;11.026;2023-07-20T12:57:43;3.50;;;1.47;;
29280;SDS011;25048;49.590;11.026;2023-07-20T13:00:13;2.30;;;1.20;;
29280;SDS011;25048;49.590;11.026;2023-07-20T13:02:42;6.70;;;1.90;;
29280;SDS011;25048;49.590;11.026;2023-07-20T13:05:10;1.95;;;1.10;;
29280;SDS011;25048;49.590;11.026;2023-07-20T13:07:38;3.02;;;1.40;;
29280;SDS011;25048;49.590;11.026;2023-07-20T13:10:06;2.58;;;1.35;;
29280;SDS011;25048;49.590;11.026;2023-07-20T13:12:35;1.70;;;1.12;;
29280;SDS011;25048;49.590;11.026;2023-07-20T13:15:05;1.47;;;1.10;;
29280;SDS011;25048;49.590;11.026;2023-07-20T13:17:38;2.52;;;1.30;;
29280;SDS011;25048;49.590;11.026;2023-07-20T13:20:06;1.77;;;1.30;;
29280;SDS011;25048;49.590;11.026;2023-07-20T13:22:36;2.10;;;1.20;;
29280;SDS011;25048;49.590;11.026;2023-07-20T13:25:04;1.82;;;1.47;;
29280;SDS011;25048;49.590;11.026;2023-07-20T13:27:37;4.40;;;1.30;;
29280;SDS011;25048;49.590;11.026;2023-07-20T13:30:05;2.37;;;1.12;;
29280;SDS011;25048;49.590;11.026;2023-07-20T13:32:37;4.55;;;1.12;;
29280;SDS011;25048;49.590;11.026;2023-07-20T13:35:11;1.67;;;1.20;;
29280;SDS011;25048;49.590;11.026;2023-07-20T13:37:44;2.00;;;1.10;;
29280;SDS011;25048;49.590;11.026;2023-07-20T13:40:12;2.47;;;1.20;;
29280;SDS011;25048;49.590;11.026;2023-07-20T13:42:42;1.95;;;1.20;;
29280;SDS011;25048;49.590;11.026;2023-07-20T13:45:10;3.75;;;1.30;;
29280;SDS011;25048;49.590;11.026;2023-07-20T13:47:40;2.52;;;1.50;;
29280;SDS011;25048;49.590;11.026;2023-07-20T13:50:07;1.50;;;1.32;;
29280;SDS011;25048;49.590;11.026;2023-07-20T13:52:36;2.58;;;1.42;;
29280;SDS011;25048;49.590;11.026;2023-07-20T13:55:04;6.03;;;1.32;;
29280;SDS011;25048;49.590;11.026;2023-07-20T13:57:32;1.45;;;1.30;;
29280;SDS011;25048;49.590;11.026;2023-07-20T13:59:59;3.22;;;1.25;;
29280;SDS011;25048;49.590;11.026;2023-07-20T14:02:33;1.50;;;1.02;;
29280;SDS011;25048;49.590;11.026;2023-07-20T14:04:57;40.25;;;2.45;;
29280;SDS011;25048;49.590;11.026;2023-07-20T14:07:25;1.32;;;0.98;;
29280;SDS011;25048;49.590;11.026;2023-07-20T14:09:53;1.10;;;1.00;;
29280;SDS011;25048;49.590;11.026;2023-07-20T14:12:20;3.85;;;1.20;;
29280;SDS011;25048;49.590;11.026;2023-07-20T14:14:48;2.15;;;1.00;;
29280;SDS011;25048;49.590;11.026;2023-07-20T14:17:16;2.30;;;1.12;;
29280;SDS011;25048;49.590;11.026;2023-07-20T14:19:43;1.15;;;1.00;;
29280;SDS011;25048;49.590;11.026;2023-07-20T14:22:11;1.87;;;0.82;;
29280;SDS011;25048;49.590;11.026;2023-07-20T14:24:39;2.00;;;1.00;;
29280;SDS011;25048;49.590;11.026;2023-07-20T14:27:06;1.25;;;0.93;;
29280;SDS011;25048;49.590;11.026;2023-07-20T14:29:34;1.27;;;1.00;;
29280;SDS011;25048;49.590;11.026;2023-07-20T14:32:02;1.65;;;1.10;;
29280;SDS011;25048;49.590;11.026;2023-07-20T14:34:36;2.35;;;1.15;;
29280;SDS011;25048;49.590;11.026;2023-07-20T14:37:02;1.95;;;1.10;;
29280;SDS011;25048;49.590;11.026;2023-07-20T14:39:30;1.75;;;0.95;;
29280;SDS011;25048;49.590;11.026;2023-07-20T14:41:57;1.82;;;0.98;;
29280;SDS011;25048;49.590;11.026;2023-07-20T14:44:25;3.00;;;1.00;;
29280;SDS011;25048;49.590;11.026;2023-07-20T14:46:52;2.25;;;1.12;;
29280;SDS011;25048;49.590;11.026;2023-07-20T14:49:21;2.47;;;1.05;;
29280;SDS011;25048;49.590;11.026;2023-07-20T14:51:48;1.00;;;0.70;;
29280;SDS011;25048;49.590;11.026;2023-07-20T14:54:16;1.52;;;0.98;;
29280;SDS011;25048;49.590;11.026;2023-07-20T14:56:50;2.45;;;1.10;;
29280;SDS011;25048;49.590;11.026;2023-07-20T14:59:22;3.52;;;1.10;;